NCAR-RAP Real-Time Weather Data

Output produced by METARs form (10 April 2020  07:22 UTC)
found at http://weather.rap.ucar.edu/surface/
 
KBDR 100652Z AUTO 28009G17KT 10SM CLR 06/M02 A2928 RMK AO2 SLP915 T00611022